createdAt,value
2018-09-20T04:23:52.036Z,3
2018-09-20T04:30:58.939Z,7
2018-09-20T04:33:32.062Z,10
2018-09-20T04:35:33.896Z,13
2018-09-20T04:37:04.853Z,17
2018-09-20T04:38:36.842Z,20
2018-09-20T04:39:37.802Z,23
2018-09-20T04:40:38.823Z,27
2018-09-20T04:41:39.815Z,30
2018-09-20T04:42:09.767Z,33
2018-09-20T04:42:40.767Z,37
2018-09-20T04:43:10.794Z,40
2018-09-20T04:43:41.776Z,43
2018-09-20T04:44:11.768Z,47
2018-09-20T04:44:42.744Z,53
2018-09-20T04:45:12.732Z,57
2018-09-20T04:45:43.788Z,63
2018-09-20T04:46:13.745Z,70
2018-09-20T04:46:44.763Z,77
2018-09-20T04:47:14.695Z,83
2018-09-20T04:47:45.713Z,93
2018-09-20T04:48:15.691Z,100
2018-09-20T04:48:46.714Z,107
2018-09-20T04:49:16.661Z,117
2018-09-20T04:49:47.698Z,127
2018-09-20T04:50:17.680Z,133
2018-09-20T04:50:48.722Z,143
2018-09-20T04:51:18.641Z,153
2018-09-20T04:51:49.663Z,160
2018-09-20T04:52:19.653Z,170
2018-09-20T04:52:50.688Z,180
2018-09-20T04:53:20.709Z,190
2018-09-20T04:53:51.666Z,200
2018-09-20T04:54:21.615Z,210
2018-09-20T04:54:52.677Z,217
2018-09-20T04:55:22.591Z,230
2018-09-20T04:55:53.631Z,243
2018-09-20T04:56:23.629Z,253
2018-09-20T04:56:54.871Z,267
2018-09-20T04:57:24.570Z,280
2018-09-20T04:57:55.603Z,290
2018-09-20T04:58:25.621Z,300
2018-09-20T04:58:56.616Z,313
2018-09-20T04:59:26.594Z,323
2018-09-20T04:59:57.610Z,333
2018-09-20T05:00:27.535Z,347
2018-09-20T05:00:58.596Z,357
2018-09-20T05:01:28.570Z,367
2018-09-20T05:01:59.602Z,373
2018-09-20T05:02:29.614Z,383
2018-09-20T05:03:01.628Z,393
2018-09-20T05:03:30.523Z,407
2018-09-20T05:04:01.521Z,420
2018-09-20T05:04:31.498Z,430
2018-09-20T05:05:02.575Z,443
2018-09-20T05:05:32.504Z,457
2018-09-20T05:06:03.496Z,473
2018-09-20T05:06:33.489Z,493
2018-09-20T05:07:04.518Z,510
2018-09-20T05:07:34.536Z,530
2018-09-20T05:08:05.490Z,547
2018-09-20T05:08:35.485Z,560
2018-09-20T05:09:06.462Z,577
2018-09-20T05:09:36.481Z,590
2018-09-20T05:10:07.538Z,603
2018-09-20T05:10:37.478Z,617
2018-09-20T05:11:08.454Z,630
2018-09-20T05:11:38.429Z,640
2018-09-20T05:12:09.423Z,657
2018-09-20T05:12:39.417Z,670
2018-09-20T05:13:10.470Z,687
2018-09-20T05:13:40.499Z,703
2018-09-20T05:14:11.407Z,727
2018-09-20T05:14:41.357Z,753
2018-09-20T05:15:12.365Z,783
2018-09-20T05:15:42.349Z,817
2018-09-20T05:16:13.365Z,853
2018-09-20T05:16:43.414Z,883
2018-09-20T05:17:14.347Z,920
2018-09-20T05:17:44.340Z,953
2018-09-20T05:18:15.392Z,990
2018-09-20T05:18:44.539Z,1027
2018-09-20T05:19:15.477Z,1063
2018-09-20T05:19:45.511Z,1093
2018-09-20T05:20:16.597Z,1127
2018-09-20T05:20:46.558Z,1160
2018-09-20T05:21:17.558Z,1193
2018-09-20T05:21:47.586Z,1227
2018-09-20T05:22:18.547Z,1267
2018-09-20T05:22:48.597Z,1307
2018-09-20T05:23:19.591Z,1353
2018-09-20T05:23:49.636Z,1403
2018-09-20T05:24:20.592Z,1457
2018-09-20T05:24:50.642Z,1503
2018-09-20T05:25:21.871Z,1560
2018-09-20T05:25:51.630Z,1617
2018-09-20T05:26:22.685Z,1673
2018-09-20T05:26:52.659Z,1727
2018-09-20T05:27:23.718Z,1787
2018-09-20T05:27:53.726Z,1847
2018-09-20T05:28:24.699Z,1903
2018-09-20T05:28:54.711Z,1953
2018-09-20T05:29:25.753Z,2007
2018-09-20T05:29:55.744Z,2053
2018-09-20T05:30:26.805Z,2100
2018-09-20T05:30:56.988Z,2140
2018-09-20T05:31:27.811Z,2187
2018-09-20T05:31:57.799Z,2230
2018-09-20T05:32:28.816Z,2273
2018-09-20T05:32:58.838Z,2313
2018-09-20T05:33:29.885Z,2360
2018-09-20T05:33:59.893Z,2410
2018-09-20T05:34:30.864Z,2457
2018-09-20T05:35:01.651Z,2497
2018-09-20T05:35:32.051Z,2533
2018-09-20T05:36:01.996Z,2560
2018-09-20T05:36:32.996Z,2597
2018-09-20T05:37:03.028Z,2633
2018-09-20T05:37:33.947Z,2673
2018-09-20T05:38:03.958Z,2707
2018-09-20T05:38:34.982Z,2730
2018-09-20T05:39:04.987Z,2750
2018-09-20T05:39:36.077Z,2763
2018-09-20T05:40:06.047Z,2780
2018-09-20T05:40:37.088Z,2803
2018-09-20T05:41:07.029Z,2830
2018-09-20T05:41:38.073Z,2860
2018-09-20T05:42:08.062Z,2887
2018-09-20T05:42:39.099Z,2917
2018-09-20T05:43:09.153Z,2947
2018-09-20T05:43:40.216Z,2970
2018-09-20T05:44:10.186Z,2990
2018-09-20T05:44:41.137Z,3013
2018-09-20T05:45:11.194Z,3037
2018-09-20T05:45:47.709Z,3070
2018-09-20T05:46:15.116Z,3117
2018-09-20T05:46:44.230Z,3167
2018-09-20T05:47:15.233Z,3223
2018-09-20T05:47:45.367Z,3283
2018-09-20T05:48:16.380Z,3357
2018-09-20T05:48:46.370Z,3443
2018-09-20T05:49:17.293Z,3557
2018-09-20T05:49:47.316Z,3670
2018-09-20T05:50:18.305Z,3767
2018-09-20T05:50:48.375Z,3833
2018-09-20T05:51:19.288Z,3870
2018-09-20T05:51:49.299Z,3890
2018-09-20T05:52:20.256Z,3913
2018-09-20T05:52:50.266Z,3947
2018-09-20T05:53:21.275Z,4017
2018-09-20T05:53:51.285Z,4093
2018-09-20T05:54:22.284Z,4190
2018-09-20T05:54:52.219Z,4273
2018-09-20T05:55:23.257Z,4350
2018-09-20T05:55:53.222Z,4410
2018-09-20T05:56:24.238Z,4457
2018-09-20T05:56:54.187Z,4487
2018-09-20T05:57:25.238Z,4557
2018-09-20T05:57:55.172Z,4650
2018-09-20T05:58:26.237Z,4723
2018-09-20T05:58:56.160Z,4773
2018-09-20T05:59:27.266Z,4823
2018-09-20T05:59:57.451Z,4877
2018-09-20T06:00:28.227Z,4930
2018-09-20T06:00:58.161Z,4960
2018-09-20T06:01:29.138Z,4993
2018-09-20T06:01:59.224Z,5070
2018-09-20T06:02:30.187Z,5203
2018-09-20T06:03:00.160Z,5360
2018-09-20T06:03:31.200Z,5517
2018-09-20T06:04:01.608Z,5653
2018-09-20T06:04:32.105Z,5833
2018-09-20T06:05:02.162Z,6000
2018-09-20T06:05:33.146Z,6167
2018-09-20T06:06:03.178Z,6357
2018-09-20T06:06:34.130Z,6597
2018-09-20T06:07:04.057Z,6843
2018-09-20T06:07:35.064Z,7087
2018-09-20T06:08:05.052Z,7253
2018-09-20T06:08:36.081Z,7273
2018-09-20T06:09:06.082Z,7060
2018-09-20T06:09:37.101Z,6857
2018-09-20T06:10:07.065Z,6827
2018-09-20T06:10:38.056Z,6880
2018-09-20T06:11:08.063Z,7097
2018-09-20T06:11:39.034Z,7697
2018-09-20T06:12:09.065Z,8513
2018-09-20T06:12:40.027Z,9077
2018-09-20T06:13:10.032Z,9357
2018-09-20T06:13:41.013Z,9890
2018-09-20T06:14:11.012Z,10483
2018-09-20T06:14:41.980Z,10863
2018-09-20T06:15:11.986Z,10907
2018-09-20T06:15:42.956Z,10903
2018-09-20T06:16:12.962Z,10990
2018-09-20T06:16:43.944Z,10963
2018-09-20T06:17:44.994Z,10913
2018-09-20T06:18:14.919Z,10807
2018-09-20T06:18:45.956Z,10600
2018-09-20T06:19:15.932Z,10543
2018-09-20T06:19:46.904Z,10537
2018-09-20T06:20:16.914Z,10530
2018-09-20T06:20:47.898Z,10727
2018-09-20T06:21:17.919Z,11100
2018-09-20T06:21:48.949Z,11313
2018-09-20T06:22:18.866Z,11320
2018-09-20T06:22:49.888Z,11240
2018-09-20T06:23:19.861Z,11113
2018-09-20T06:23:50.956Z,10963
2018-09-20T06:24:20.924Z,10810
2018-09-20T06:24:51.854Z,10650
2018-09-20T06:25:21.837Z,10487
2018-09-20T06:25:52.863Z,10310
2018-09-20T06:26:22.833Z,10047
2018-09-20T06:26:53.912Z,9683
2018-09-20T06:27:23.898Z,9353
2018-09-20T06:27:54.859Z,9060
2018-09-20T06:28:24.812Z,8800
2018-09-20T06:28:55.840Z,8597
2018-09-20T06:29:25.798Z,8570
2018-09-20T06:29:56.817Z,8690
2018-09-20T06:30:26.813Z,8800
2018-09-20T06:30:57.792Z,8973
2018-09-20T06:31:27.772Z,9170
2018-09-20T06:31:58.778Z,9457
2018-09-20T06:32:28.762Z,9690
2018-09-20T06:32:59.805Z,9737
2018-09-20T06:33:29.826Z,9713
2018-09-20T06:34:00.870Z,9790
2018-09-20T06:34:30.742Z,9987
2018-09-20T06:35:01.792Z,10113
2018-09-20T06:35:31.741Z,10220
2018-09-20T06:36:02.801Z,10233
2018-09-20T06:36:32.760Z,10087
2018-09-20T06:37:03.754Z,9877
2018-09-20T06:37:33.715Z,9867
2018-09-20T06:38:04.710Z,9860
2018-09-20T06:38:34.712Z,9783
2018-09-20T06:39:05.753Z,9693
2018-09-20T06:39:35.790Z,9703
2018-09-20T06:40:06.684Z,9597
2018-09-20T06:40:36.702Z,9580
2018-09-20T06:41:07.740Z,9730
2018-09-20T06:41:37.680Z,9837
2018-09-20T06:42:08.680Z,9863
2018-09-20T06:42:38.661Z,9693
2018-09-20T06:43:09.671Z,9487
2018-09-20T06:43:39.627Z,9333
2018-09-20T06:44:10.694Z,9023
2018-09-20T06:44:40.645Z,9067
2018-09-20T06:45:11.683Z,9217
2018-09-20T06:45:41.677Z,9350
2018-09-20T06:46:12.617Z,9357
2018-09-20T06:46:42.595Z,9260
2018-09-20T06:47:13.609Z,9093
2018-09-20T06:47:43.584Z,8747
2018-09-20T06:48:14.618Z,8537
2018-09-20T06:48:44.620Z,8553
2018-09-20T06:49:15.578Z,8443
2018-09-20T06:49:45.640Z,8207
2018-09-20T06:50:16.624Z,8130
2018-09-20T06:50:46.594Z,8177
2018-09-20T06:51:17.608Z,8123
2018-09-20T06:51:47.581Z,8203
2018-09-20T06:52:18.553Z,8387
2018-09-20T06:52:48.571Z,8723
2018-09-20T06:53:19.586Z,9117
2018-09-20T06:53:49.574Z,9597
2018-09-20T06:54:20.501Z,10197
2018-09-20T06:54:50.769Z,10613
2018-09-20T06:55:21.527Z,10880
2018-09-20T06:55:51.501Z,10980
2018-09-20T06:56:22.506Z,11230
2018-09-20T06:56:52.516Z,11377
2018-09-20T06:57:23.494Z,11607
2018-09-20T06:57:53.496Z,11023
2018-09-20T06:58:24.542Z,11150
2018-09-20T06:58:54.453Z,10683
2018-09-20T06:59:25.607Z,10617
2018-09-20T06:59:55.528Z,10777
2018-09-20T07:00:26.447Z,10880
2018-09-20T07:00:56.466Z,10997
2018-09-20T07:01:27.452Z,11133
2018-09-20T07:01:57.483Z,11323
2018-09-20T07:02:28.432Z,11530
2018-09-20T07:02:58.454Z,11723
2018-09-20T07:03:29.411Z,11867
2018-09-20T07:03:59.450Z,11890
2018-09-20T07:04:30.437Z,11900
2018-09-20T07:05:01.423Z,11980
2018-09-20T07:05:31.409Z,12187
2018-09-20T07:06:01.531Z,12427
2018-09-20T07:06:31.524Z,12737
2018-09-20T07:07:01.564Z,12917
2018-09-20T07:07:32.579Z,12923
2018-09-20T07:08:02.669Z,12920
2018-09-20T07:08:33.535Z,13093
2018-09-20T07:09:03.566Z,13070
2018-09-20T07:09:34.564Z,13233
2018-09-20T07:10:04.597Z,13360
2018-09-20T07:10:35.683Z,13370
2018-09-20T07:11:05.593Z,13387
2018-09-20T07:11:36.622Z,13450
2018-09-20T07:12:06.641Z,13420
2018-09-20T07:12:37.732Z,13240
2018-09-20T07:13:07.720Z,12997
2018-09-20T07:13:38.711Z,12680
2018-09-20T07:14:08.981Z,12417
2018-09-20T07:14:39.718Z,12237
2018-09-20T07:15:09.692Z,12170
2018-09-20T07:15:40.733Z,12270
2018-09-20T07:16:10.779Z,12417
2018-09-20T07:16:41.774Z,12573
2018-09-20T07:17:11.789Z,12627
2018-09-20T07:17:42.753Z,12727
2018-09-20T07:18:12.792Z,12853
2018-09-20T07:18:43.784Z,12860
2018-09-20T07:19:13.850Z,12903
2018-09-20T07:19:44.851Z,13313
2018-09-20T07:20:14.899Z,12927
2018-09-20T07:20:45.845Z,12597
2018-09-20T07:21:15.919Z,12790
2018-09-20T07:21:46.870Z,12463
2018-09-20T07:22:16.906Z,12297
2018-09-20T07:22:47.893Z,12280
2018-09-20T07:23:17.915Z,12430
2018-09-20T07:23:48.923Z,11933
2018-09-20T07:24:19.045Z,11520
2018-09-20T07:24:49.955Z,11307
2018-09-20T07:25:20.022Z,11167
2018-09-20T07:25:51.027Z,11007
2018-09-20T07:26:21.046Z,10870
2018-09-20T07:26:52.027Z,10883
2018-09-20T07:27:22.022Z,10923
2018-09-20T07:27:53.022Z,11017
2018-09-20T07:28:23.123Z,11177
2018-09-20T07:28:54.130Z,11267
2018-09-20T07:29:24.089Z,11330
2018-09-20T07:29:55.078Z,11327
2018-09-20T07:30:25.108Z,11260
2018-09-20T07:30:55.177Z,11267
2018-09-20T07:31:25.144Z,11347
2018-09-20T07:31:56.184Z,11403
2018-09-20T07:32:26.174Z,11420
2018-09-20T07:32:57.246Z,11473
2018-09-20T07:33:27.252Z,11497
2018-09-20T07:33:58.238Z,11523
2018-09-20T07:34:31.237Z,11473
2018-09-20T07:35:00.874Z,11520
2018-09-20T07:35:31.262Z,11537
2018-09-20T07:36:01.370Z,11653
2018-09-20T07:37:02.385Z,11707
2018-09-20T07:37:33.344Z,11613
2018-09-20T07:38:03.344Z,11523
2018-09-20T07:38:34.362Z,11527
2018-09-20T07:39:04.312Z,11647
2018-09-20T07:39:35.376Z,11780
2018-09-20T07:40:05.320Z,11890
2018-09-20T07:40:36.349Z,12163
2018-09-20T07:41:06.326Z,12277
2018-09-20T07:41:37.343Z,12337
2018-09-20T07:42:07.318Z,12650
2018-09-20T07:42:38.336Z,13427
2018-09-20T07:43:08.294Z,14353
2018-09-20T07:43:39.353Z,14937
2018-09-20T07:44:08.425Z,15143
2018-09-20T07:44:39.453Z,14933
2018-09-20T07:45:09.445Z,14533
2018-09-20T07:45:40.407Z,14090
2018-09-20T07:46:10.451Z,13980
2018-09-20T07:46:41.487Z,14093
2018-09-20T07:47:11.466Z,14513
2018-09-20T07:47:42.523Z,15000
2018-09-20T07:48:12.556Z,14947
2018-09-20T07:48:43.515Z,15090
2018-09-20T07:49:13.543Z,15223
2018-09-20T07:49:44.572Z,15220
2018-09-20T07:50:14.562Z,15370
2018-09-20T07:50:45.564Z,15677
2018-09-20T07:51:15.583Z,15773
2018-09-20T07:51:46.560Z,16057
2018-09-20T07:52:16.634Z,16540
2018-09-20T07:52:47.623Z,17280
2018-09-20T07:53:17.671Z,18120
2018-09-20T07:53:48.675Z,19250
2018-09-20T07:54:18.691Z,20140
2018-09-20T07:54:49.686Z,20710
2018-09-20T07:55:19.680Z,21557
2018-09-20T07:55:50.695Z,22510
2018-09-20T07:56:20.719Z,23027
2018-09-20T07:56:51.725Z,23103
2018-09-20T07:57:21.720Z,23223
2018-09-20T07:57:52.710Z,23877
2018-09-20T07:58:22.751Z,24177
2018-09-20T07:58:53.806Z,24007
2018-09-20T07:59:23.781Z,23283
2018-09-20T07:59:54.763Z,21977
2018-09-20T08:00:24.807Z,20487
2018-09-20T08:00:55.911Z,18637
2018-09-20T08:01:25.858Z,16577
2018-09-20T08:01:56.852Z,14720
2018-09-20T08:02:26.926Z,13950
2018-09-20T08:02:57.865Z,13943
2018-09-20T08:03:27.868Z,14420
2018-09-20T08:03:58.877Z,14723
2018-09-20T08:04:28.903Z,14357
2018-09-20T08:04:59.966Z,13740
2018-09-20T08:05:30.019Z,13240
2018-09-20T08:06:01.047Z,12897
2018-09-20T08:06:30.944Z,12813
2018-09-20T08:07:02.012Z,12760
2018-09-20T08:07:31.978Z,13787
2018-09-20T08:08:03.012Z,15413
2018-09-20T08:08:33.028Z,17300
2018-09-20T08:09:03.007Z,19290
2018-09-20T08:09:33.051Z,21337
2018-09-20T08:10:04.027Z,22693
2018-09-20T08:10:34.044Z,24257
2018-09-20T08:11:05.134Z,25647
2018-09-20T08:11:35.070Z,26560
2018-09-20T08:12:06.174Z,26853
2018-09-20T08:12:39.041Z,27137
2018-09-20T08:13:08.158Z,27510
2018-09-20T08:13:39.175Z,27847
2018-09-20T08:14:09.301Z,26940
2018-09-20T08:14:40.270Z,25937
2018-09-20T08:15:10.287Z,24760
2018-09-20T08:15:41.228Z,23567
2018-09-20T08:16:11.238Z,22417
2018-09-20T08:16:42.264Z,21720
2018-09-20T08:17:12.227Z,21407
2018-09-20T08:17:43.193Z,21057
2018-09-20T08:18:13.212Z,21280
2018-09-20T08:18:44.287Z,21917
2018-09-20T08:19:14.163Z,22810
2018-09-20T08:19:45.197Z,23303
2018-09-20T08:20:15.155Z,23677
2018-09-20T08:20:46.240Z,23420
2018-09-20T08:21:16.136Z,23080
2018-09-20T08:21:47.167Z,23303
2018-09-20T08:22:17.119Z,24063
2018-09-20T08:22:48.121Z,25307
2018-09-20T08:23:18.149Z,25990
2018-09-20T08:23:49.119Z,28417
2018-09-20T08:24:19.132Z,28860
2018-09-20T08:24:50.100Z,30263
2018-09-20T08:25:20.099Z,31097
2018-09-20T08:25:51.117Z,33030
2018-09-20T08:26:21.120Z,34137
2018-09-20T08:26:52.106Z,37963
2018-09-20T08:27:22.072Z,31303
2018-09-20T08:27:53.163Z,35873
2018-09-20T08:28:23.120Z,32183
2018-09-20T08:28:54.094Z,30940
2018-09-20T08:29:24.127Z,36277
2018-09-20T08:29:55.040Z,33177
2018-09-20T08:30:25.034Z,44970
2018-09-20T08:30:56.092Z,37833
2018-09-20T08:31:26.020Z,41530
2018-09-20T08:31:57.034Z,29093
2018-09-20T08:32:27.025Z,28477
2018-09-20T08:32:57.995Z,26883
2018-09-20T08:33:27.976Z,27647
2018-09-20T08:33:58.978Z,25920
2018-09-20T08:34:29.034Z,26593
2018-09-20T08:35:00.005Z,26793
2018-09-20T08:35:30.013Z,26653
2018-09-20T08:36:01.460Z,26970
2018-09-20T08:36:30.951Z,28697
2018-09-20T08:37:01.965Z,28553
2018-09-20T08:37:31.968Z,38830
2018-09-20T08:38:02.968Z,48760
2018-09-20T08:38:32.950Z,35773
2018-09-20T08:39:03.948Z,41353
2018-09-20T08:39:34.020Z,31553
2018-09-20T08:40:04.903Z,42673
2018-09-20T08:40:34.909Z,31537
2018-09-20T08:41:05.941Z,37543
2018-09-20T08:41:35.935Z,32240
2018-09-20T08:42:06.938Z,31000
2018-09-20T08:42:36.860Z,32200
2018-09-20T08:43:07.860Z,57660
2018-09-20T08:43:37.857Z,61103
2018-09-20T08:44:08.920Z,47783
2018-09-20T08:44:38.970Z,44503
2018-09-20T08:45:09.834Z,33907
2018-09-20T08:45:39.836Z,36863
2018-09-20T08:46:10.819Z,60650
2018-09-20T08:46:40.822Z,37117
2018-09-20T08:47:11.841Z,35717
2018-09-20T08:47:41.807Z,68407
2018-09-20T08:48:12.793Z,50327
2018-09-20T08:48:42.778Z,70170
2018-09-20T08:49:13.828Z,36750
2018-09-20T08:49:43.766Z,39623
2018-09-20T08:50:14.853Z,39280
2018-09-20T08:50:44.794Z,36217
2018-09-20T08:51:15.748Z,37883
2018-09-20T08:51:45.734Z,61703
2018-09-20T08:52:16.749Z,55377
2018-09-20T08:52:46.728Z,40967
2018-09-20T08:53:17.757Z,44587
2018-09-20T08:53:47.735Z,37363
2018-09-20T08:54:18.762Z,37493
2018-09-20T08:54:48.703Z,35253
2018-09-20T08:55:19.744Z,33880
2018-09-20T08:55:49.688Z,33693
2018-09-20T08:56:20.697Z,32270
2018-09-20T08:56:50.780Z,30550
2018-09-20T08:57:21.801Z,30293
2018-09-20T08:57:51.667Z,33620
2018-09-20T08:58:22.660Z,56250
2018-09-20T08:58:52.660Z,29810
2018-09-20T08:59:23.686Z,29077
2018-09-20T08:59:53.656Z,28043
2018-09-20T09:00:24.656Z,27463
2018-09-20T09:00:54.626Z,30440
2018-09-20T09:01:25.626Z,27923
2018-09-20T09:01:55.670Z,45370
2018-09-20T09:02:26.690Z,26557
2018-09-20T09:02:56.636Z,24847
2018-09-20T09:03:27.606Z,23257
2018-09-20T09:03:57.911Z,23797
2018-09-20T09:04:28.609Z,23680
2018-09-20T09:04:58.588Z,24697
2018-09-20T09:05:29.635Z,28483
2018-09-20T09:05:59.657Z,27167
2018-09-20T09:06:30.586Z,28577
2018-09-20T09:07:01.614Z,26853
2018-09-20T09:07:31.596Z,28030
2018-09-20T09:08:01.613Z,32037
2018-09-20T09:08:32.573Z,29273
2018-09-20T09:09:02.552Z,28770
2018-09-20T09:09:33.603Z,29767
2018-09-20T09:10:03.528Z,29633
2018-09-20T09:10:34.581Z,30470
2018-09-20T09:11:04.512Z,34850
2018-09-20T09:11:35.592Z,55650
2018-09-20T09:12:05.631Z,26943
2018-09-20T09:12:36.527Z,31527
2018-09-20T09:13:06.491Z,36727
2018-09-20T09:13:37.508Z,27517
2018-09-20T09:14:07.481Z,25450
2018-09-20T09:14:38.531Z,24890
2018-09-20T09:15:08.477Z,31167
2018-09-20T09:15:39.491Z,27640
2018-09-20T09:16:09.460Z,26047
2018-09-20T09:16:40.452Z,25687
2018-09-20T09:17:10.522Z,30177
2018-09-20T09:17:41.517Z,65100
2018-09-20T09:18:11.490Z,34443
2018-09-20T09:18:42.474Z,56363
2018-09-20T09:19:12.408Z,36763
2018-09-20T09:19:43.497Z,61767
2018-09-20T09:20:13.441Z,25003
2018-09-20T09:20:44.465Z,24080
2018-09-20T09:21:14.425Z,24183
2018-09-20T09:21:45.472Z,24327
2018-09-20T09:22:15.441Z,23527
2018-09-20T09:22:46.446Z,23023
2018-09-20T09:23:16.414Z,26880
2018-09-20T09:23:47.455Z,21453
2018-09-20T09:24:17.365Z,20207
2018-09-20T09:24:48.404Z,18713
2018-09-20T09:25:18.408Z,18180
2018-09-20T09:25:49.496Z,22993
2018-09-20T09:26:19.355Z,20007
2018-09-20T09:26:50.380Z,23193
2018-09-20T09:27:20.375Z,63400
2018-09-20T09:27:51.358Z,24723
2018-09-20T09:28:21.319Z,33313
2018-09-20T09:28:52.353Z,27573
2018-09-20T09:29:22.333Z,26120
2018-09-20T09:29:53.305Z,51487
2018-09-20T09:30:23.346Z,27263
2018-09-20T09:30:54.334Z,25783
2018-09-20T09:31:24.314Z,56927
2018-09-20T09:31:55.306Z,65983
2018-09-20T09:32:25.330Z,64657
2018-09-20T09:32:56.316Z,65413
2018-09-20T09:33:26.245Z,62960
2018-09-20T09:33:57.302Z,64580
2018-09-20T09:34:27.293Z,47690
2018-09-20T09:34:58.293Z,31683
2018-09-20T09:35:28.270Z,54513
2018-09-20T09:35:59.278Z,63900
2018-09-20T09:36:29.241Z,64633
2018-09-20T09:37:01.807Z,58867
2018-09-20T09:37:30.225Z,25527
2018-09-20T09:38:01.868Z,25067
2018-09-20T09:38:31.189Z,63320
2018-09-20T09:39:02.225Z,23857
2018-09-20T09:39:32.205Z,54903
2018-09-20T09:40:03.201Z,34370
2018-09-20T09:40:33.210Z,64007
2018-09-20T09:41:04.196Z,62847
2018-09-20T09:41:34.138Z,63283
2018-09-20T09:42:05.236Z,63093
2018-09-20T09:42:35.333Z,63280
2018-09-20T09:43:06.176Z,64643
2018-09-20T09:43:36.187Z,65597
2018-09-20T09:44:07.100Z,65480
2018-09-20T09:44:37.135Z,65843
2018-09-20T09:45:08.097Z,65697
2018-09-20T09:45:38.092Z,64857
2018-09-20T09:46:09.182Z,65030
2018-09-20T09:46:39.096Z,64843
2018-09-20T09:47:10.069Z,65073
2018-09-20T09:47:40.106Z,64990
2018-09-20T09:48:11.123Z,65280
2018-09-20T09:49:12.105Z,66497
2018-09-20T09:49:42.100Z,66973
2018-09-20T09:50:13.105Z,67607
2018-09-20T09:50:43.015Z,68443
2018-09-20T09:51:14.051Z,67723
2018-09-20T09:51:43.997Z,67237
2018-09-20T09:52:15.053Z,67627
2018-09-20T09:52:45.026Z,66470
2018-09-20T09:53:16.014Z,67867
2018-09-20T09:53:45.973Z,68860
2018-09-20T09:54:16.985Z,68740
2018-09-20T09:54:47.021Z,68760
2018-09-20T09:55:18.020Z,69517
2018-09-20T09:55:48.024Z,68603
2018-09-20T09:56:18.973Z,64070
2018-09-20T09:56:48.941Z,26457
2018-09-20T09:57:19.936Z,67363
2018-09-20T09:57:49.941Z,68953
2018-09-20T09:58:20.969Z,68837
2018-09-20T09:58:50.941Z,69150
2018-09-20T09:59:21.906Z,68457
2018-09-20T09:59:51.934Z,20833
2018-09-20T10:00:22.935Z,67533
2018-09-20T10:00:52.878Z,67680
2018-09-20T10:01:23.892Z,67993
2018-09-20T10:01:53.904Z,64800
2018-09-20T10:02:24.892Z,67927
2018-09-20T10:02:54.865Z,32093
2018-09-20T10:03:25.871Z,49663
2018-09-20T10:03:55.844Z,68783
2018-09-20T10:04:26.921Z,20307
2018-09-20T10:04:56.908Z,66407
2018-09-20T10:05:27.862Z,69287
2018-09-20T10:05:57.827Z,67720
2018-09-20T10:06:28.835Z,66037
2018-09-20T10:06:58.863Z,67037
2018-09-20T10:07:29.867Z,67023
2018-09-20T10:07:59.852Z,67563
2018-09-20T10:08:30.829Z,68127
2018-09-20T10:09:02.118Z,68330
2018-09-20T10:09:31.844Z,42363
2018-09-20T10:10:01.997Z,65697
2018-09-20T10:10:32.830Z,68047
2018-09-20T10:11:02.812Z,69413
2018-09-20T10:11:33.767Z,68237
2018-09-20T10:12:03.748Z,69500
2018-09-20T10:12:34.773Z,70637
2018-09-20T10:13:04.759Z,70610
2018-09-20T10:13:35.886Z,66113
2018-09-20T10:14:05.776Z,68147
2018-09-20T10:14:36.801Z,67230
2018-09-20T10:15:06.713Z,68150
2018-09-20T10:15:37.723Z,69723
2018-09-20T10:16:07.796Z,59260
2018-09-20T10:16:38.740Z,67463
2018-09-20T10:17:08.725Z,67420
2018-09-20T10:17:39.737Z,67887
2018-09-20T10:18:09.683Z,68283
2018-09-20T10:18:40.689Z,67747
2018-09-20T10:19:10.689Z,67553
2018-09-20T10:19:41.741Z,67693
2018-09-20T10:20:11.687Z,68543
2018-09-20T10:20:42.701Z,69187
2018-09-20T10:21:12.896Z,69450
2018-09-20T10:21:43.675Z,70120
2018-09-20T10:22:13.670Z,70157
2018-09-20T10:22:44.651Z,70087
2018-09-20T10:23:14.664Z,69943
2018-09-20T10:23:45.642Z,70237
2018-09-20T10:24:15.644Z,69710
2018-09-20T10:24:46.666Z,70313
2018-09-20T10:25:16.590Z,70833
2018-09-20T10:25:47.703Z,70903
2018-09-20T10:26:17.717Z,71187
2018-09-20T10:26:48.585Z,71217
2018-09-20T10:27:18.580Z,71167
2018-09-20T10:27:49.570Z,70517
2018-09-20T10:28:19.579Z,71120
2018-09-20T10:28:50.638Z,71680
2018-09-20T10:29:20.608Z,71513
2018-09-20T10:29:51.589Z,71860
2018-09-20T10:30:21.576Z,72267
2018-09-20T10:30:52.613Z,70897
2018-09-20T10:31:22.621Z,71440
2018-09-20T10:31:53.631Z,71540
2018-09-20T10:32:23.571Z,71597
2018-09-20T10:32:54.559Z,71467
2018-09-20T10:33:24.638Z,71453
2018-09-20T10:33:55.595Z,71743
2018-09-20T10:34:25.554Z,72267
2018-09-20T10:34:56.568Z,72747
2018-09-20T10:35:26.539Z,72967
2018-09-20T10:35:57.504Z,73313
2018-09-20T10:36:27.555Z,73227
2018-09-20T10:36:58.498Z,73553
2018-09-20T10:37:28.528Z,73753
2018-09-20T10:37:59.618Z,74057
2018-09-20T10:38:29.513Z,74413
2018-09-20T10:39:01.554Z,74490
2018-09-20T10:39:30.458Z,73703
2018-09-20T10:40:01.656Z,71667
2018-09-20T10:40:31.468Z,74390
2018-09-20T10:41:02.476Z,74783
2018-09-20T10:41:32.505Z,75393
2018-09-20T10:42:03.498Z,75567
2018-09-20T10:42:33.418Z,75600
2018-09-20T10:43:04.439Z,75677
2018-09-20T10:43:34.470Z,74763
2018-09-20T10:44:05.446Z,74617
2018-09-20T10:44:35.405Z,74640
2018-09-20T10:45:06.451Z,74610
2018-09-20T10:45:36.450Z,75060
2018-09-20T10:46:07.454Z,76243
2018-09-20T10:46:37.439Z,75660
2018-09-20T10:47:08.385Z,75337
2018-09-20T10:47:38.393Z,73687
2018-09-20T10:48:09.404Z,74477
2018-09-20T10:48:39.376Z,74817
2018-09-20T10:49:10.372Z,74510
2018-09-20T10:49:40.318Z,71723
2018-09-20T10:50:11.361Z,71170
2018-09-20T10:50:41.347Z,72660
2018-09-20T10:51:12.340Z,74260
2018-09-20T10:51:42.387Z,75200
2018-09-20T10:52:13.393Z,75237
2018-09-20T10:52:43.350Z,75740
2018-09-20T10:53:14.300Z,77243
2018-09-20T10:53:44.309Z,76860
2018-09-20T10:54:15.360Z,76337
2018-09-20T10:54:45.402Z,74500
2018-09-20T10:55:16.270Z,73423
2018-09-20T10:55:46.239Z,71797
2018-09-20T10:56:17.246Z,70023
2018-09-20T10:56:47.264Z,69743
2018-09-20T10:57:18.257Z,71100
2018-09-20T10:57:48.270Z,72637
2018-09-20T10:58:19.267Z,69330
2018-09-20T10:58:49.231Z,67397
2018-09-20T10:59:20.242Z,63523
2018-09-20T10:59:50.196Z,65853
2018-09-20T11:00:21.289Z,67130
2018-09-20T11:00:51.269Z,68257
2018-09-20T11:01:22.210Z,63880
2018-09-20T11:01:52.182Z,64610
2018-09-20T11:02:23.179Z,61887
2018-09-20T11:02:53.196Z,66813
2018-09-20T11:03:24.331Z,68927
2018-09-20T11:03:54.185Z,71467
2018-09-20T11:04:25.214Z,73783
2018-09-20T11:04:55.131Z,74653
2018-09-20T11:05:26.148Z,74977
2018-09-20T11:05:56.154Z,72610
2018-09-20T11:06:27.151Z,76010
2018-09-20T11:06:57.132Z,76140
2018-09-20T11:07:28.165Z,75903
2018-09-20T11:07:58.091Z,77003
2018-09-20T11:08:29.160Z,77177
2018-09-20T11:08:59.102Z,76497
2018-09-20T11:09:30.110Z,76350
2018-09-20T11:10:00.068Z,75760
2018-09-20T11:10:31.178Z,76263
2018-09-20T11:11:01.691Z,75763
2018-09-20T11:11:32.061Z,74633
2018-09-20T11:12:02.040Z,76207
2018-09-20T11:12:33.067Z,77563
2018-09-20T11:13:03.082Z,77817
2018-09-20T11:13:34.115Z,80500
2018-09-20T11:14:04.018Z,81383
2018-09-20T11:14:35.023Z,82317
2018-09-20T11:15:05.008Z,82007
2018-09-20T11:15:36.014Z,80797
2018-09-20T11:16:06.019Z,80133
2018-09-20T11:16:37.043Z,78940
2018-09-20T11:17:06.976Z,77353